createdAt,value
2023-04-04T00:00:06.147Z,98.90
2023-04-04T00:03:01.937Z,99.10
2023-04-04T00:05:36.963Z,99.10
2023-04-04T00:08:10.091Z,99.40
2023-04-04T00:10:43.495Z,99.50
2023-04-04T00:13:18.972Z,99.60
2023-04-04T00:15:54.526Z,99.70
2023-04-04T00:18:26.845Z,99.80
2023-04-04T00:21:00.667Z,99.90
2023-04-04T00:23:40.526Z,99.90
2023-04-04T00:26:13.703Z,99.90
2023-04-04T00:28:48.606Z,99.90
2023-04-04T00:31:25.451Z,99.90
2023-04-04T00:33:57.641Z,99.90
2023-04-04T00:36:30.894Z,99.90
2023-04-04T00:39:02.938Z,99.90
2023-04-04T00:41:37.564Z,99.90
2023-04-04T00:44:13.930Z,99.90
2023-04-04T00:46:46.749Z,99.90
2023-04-04T00:49:20.357Z,99.90
2023-04-04T00:51:53.307Z,99.90
2023-04-04T00:54:25.993Z,99.90
2023-04-04T00:57:00.129Z,99.90
2023-04-04T00:59:36.897Z,99.90
2023-04-04T01:02:12.907Z,99.90
2023-04-04T01:04:45.744Z,99.90
2023-04-04T01:07:22.725Z,99.90
2023-04-04T01:09:56.205Z,99.90
2023-04-04T01:12:32.560Z,99.90
2023-04-04T01:15:09.951Z,99.90
2023-04-04T01:17:47.972Z,99.90
2023-04-04T01:20:29.350Z,99.90
2023-04-04T01:23:08.093Z,99.90
2023-04-04T01:25:43.613Z,99.90
2023-04-04T01:28:19.814Z,99.90
2023-04-04T01:30:53.596Z,99.90
2023-04-04T01:33:30.800Z,99.90
2023-04-04T01:36:08.208Z,99.90
2023-04-04T01:38:46.761Z,99.90
2023-04-04T01:41:27.519Z,99.90
2023-04-04T01:44:04.466Z,99.90
2023-04-04T01:46:40.377Z,99.90
2023-04-04T01:49:15.797Z,99.90
2023-04-04T01:51:51.497Z,99.90
2023-04-04T01:54:28.999Z,99.90
2023-04-04T01:57:04.634Z,99.90
2023-04-04T01:59:38.103Z,99.90
2023-04-04T02:02:13.240Z,99.90
2023-04-04T02:04:46.535Z,99.90
2023-04-04T02:07:20.239Z,99.90
2023-04-04T02:09:54.421Z,99.90
2023-04-04T02:12:30.132Z,99.90
2023-04-04T02:15:03.934Z,99.90
2023-04-04T02:17:40.779Z,99.90
2023-04-04T02:20:15.204Z,99.90
2023-04-04T02:22:47.855Z,99.90
2023-04-04T02:25:21.921Z,99.90
2023-04-04T02:27:57.311Z,99.90
2023-04-04T02:30:30.193Z,99.90
2023-04-04T02:33:04.211Z,99.90
2023-04-04T02:35:38.395Z,99.90
2023-04-04T02:38:11.732Z,99.90
2023-04-04T02:40:50.669Z,99.90
2023-04-04T02:43:26.195Z,99.90
2023-04-04T02:46:05.122Z,99.90
2023-04-04T02:48:44.163Z,99.90
2023-04-04T02:51:16.827Z,99.90
2023-04-04T02:53:52.799Z,99.90
2023-04-04T02:56:31.855Z,99.90
2023-04-04T02:59:07.212Z,99.90
2023-04-04T03:01:43.447Z,99.90
2023-04-04T03:04:16.661Z,99.90
2023-04-04T03:06:50.554Z,99.90
2023-04-04T03:09:25.251Z,99.90
2023-04-04T03:11:59.006Z,99.90
2023-04-04T03:14:34.842Z,99.90
2023-04-04T03:17:08.889Z,99.90
2023-04-04T03:19:43.015Z,99.90
2023-04-04T03:22:21.280Z,99.90
2023-04-04T03:24:54.015Z,99.90
2023-04-04T03:27:26.928Z,99.90
2023-04-04T03:30:03.141Z,99.90
2023-04-04T03:32:38.589Z,99.90
2023-04-04T03:35:12.453Z,99.90
2023-04-04T03:37:51.034Z,99.90
2023-04-04T03:40:25.694Z,99.90
2023-04-04T03:42:59.820Z,99.90
2023-04-04T03:45:38.149Z,99.90
2023-04-04T03:48:11.541Z,99.90
2023-04-04T03:50:49.571Z,99.90
2023-04-04T03:53:23.784Z,99.90
2023-04-04T03:56:00.408Z,99.90
2023-04-04T03:58:34.605Z,99.90
2023-04-04T04:01:09.870Z,99.90
2023-04-04T04:03:43.303Z,99.90
2023-04-04T04:06:17.980Z,99.90
2023-04-04T04:08:51.603Z,99.90
2023-04-04T04:11:24.260Z,99.90
2023-04-04T04:13:57.434Z,99.90
2023-04-04T04:16:33.745Z,99.90
2023-04-04T04:19:06.972Z,99.90
2023-04-04T04:21:45.032Z,99.90
2023-04-04T04:24:18.557Z,99.90
2023-04-04T04:26:55.325Z,99.90
2023-04-04T04:29:30.033Z,99.90
2023-04-04T04:32:06.139Z,99.90
2023-04-04T04:34:42.935Z,99.90
2023-04-04T04:37:15.064Z,99.90
2023-04-04T04:39:53.741Z,99.90
2023-04-04T04:42:47.648Z,99.90
2023-04-04T04:45:29.254Z,99.90
2023-04-04T04:48:17.729Z,99.90
2023-04-04T04:50:54.646Z,99.90
2023-04-04T04:53:57.939Z,99.90
2023-04-04T04:56:36.352Z,99.90
2023-04-04T04:59:15.842Z,99.90
2023-04-04T05:01:53.965Z,99.90
2023-04-04T05:04:33.453Z,99.90
2023-04-04T05:07:12.968Z,99.90
2023-04-04T05:09:49.129Z,99.90
2023-04-04T05:12:25.500Z,99.90
2023-04-04T05:15:03.551Z,99.90
2023-04-04T05:17:40.043Z,99.90
2023-04-04T05:20:20.580Z,99.90
2023-04-04T05:22:55.717Z,99.90
2023-04-04T05:25:39.878Z,99.90
2023-04-04T05:28:15.887Z,99.90
2023-04-04T05:30:54.308Z,99.90
2023-04-04T05:33:32.694Z,99.90
2023-04-04T05:36:37.317Z,99.90
2023-04-04T05:39:13.264Z,99.90
2023-04-04T05:41:55.313Z,99.90
2023-04-04T05:44:29.378Z,99.90
2023-04-04T05:47:03.094Z,99.90
2023-04-04T05:49:36.556Z,99.90
2023-04-04T05:52:14.422Z,99.90
2023-04-04T05:54:49.128Z,99.90
2023-04-04T05:57:29.865Z,99.90
2023-04-04T06:00:09.199Z,99.90
2023-04-04T06:02:47.491Z,99.90
2023-04-04T06:05:25.399Z,99.90
2023-04-04T06:08:08.101Z,99.90
2023-04-04T06:10:41.822Z,99.90
2023-04-04T06:13:15.357Z,99.90
2023-04-04T06:15:54.372Z,99.90
2023-04-04T06:18:27.220Z,99.90
2023-04-04T06:21:01.961Z,99.90
2023-04-04T06:23:39.883Z,99.90
2023-04-04T06:26:19.052Z,99.90
2023-04-04T06:28:55.552Z,99.90
2023-04-04T06:31:41.108Z,99.90
2023-04-04T06:34:20.464Z,99.90
2023-04-04T06:37:01.394Z,99.90
2023-04-04T06:39:41.544Z,99.90
2023-04-04T06:42:22.696Z,99.90
2023-04-04T06:45:04.073Z,99.90
2023-04-04T06:47:39.495Z,99.90
2023-04-04T06:50:14.973Z,99.90
2023-04-04T06:52:49.729Z,99.70
2023-04-04T06:55:25.293Z,99.90
2023-04-04T06:57:58.519Z,99.90
2023-04-04T07:00:30.341Z,99.90
2023-04-04T07:03:05.511Z,99.90
2023-04-04T07:05:40.036Z,99.60
2023-04-04T07:08:13.813Z,99.50
2023-04-04T07:10:49.243Z,99.20
2023-04-04T07:13:22.224Z,99.20
2023-04-04T07:15:59.964Z,98.50
2023-04-04T07:18:35.166Z,98.70
2023-04-04T07:21:08.145Z,98.40
2023-04-04T07:23:43.123Z,98.60
2023-04-04T07:26:21.249Z,98.40
2023-04-04T07:28:56.722Z,98.70
2023-04-04T07:31:31.326Z,98.20
2023-04-04T07:34:04.961Z,98.40
2023-04-04T07:36:40.540Z,98.40
2023-04-04T07:39:13.368Z,98.20
2023-04-04T07:41:48.093Z,98.40
2023-04-04T07:44:22.104Z,97.50
2023-04-04T07:47:06.311Z,97.70
2023-04-04T07:49:43.466Z,97.80
2023-04-04T07:52:18.188Z,98.00
2023-04-04T07:54:53.868Z,98.00
2023-04-04T07:57:30.905Z,97.70
2023-04-04T08:00:06.107Z,98.20
2023-04-04T08:02:50.261Z,98.20
2023-04-04T08:05:23.227Z,98.20
2023-04-04T08:07:56.191Z,97.50
2023-04-04T08:10:29.545Z,97.50
2023-04-04T08:13:08.648Z,97.70
2023-04-04T08:15:43.701Z,98.20
2023-04-04T08:18:16.427Z,97.20
2023-04-04T08:20:50.168Z,97.50
2023-04-04T08:23:25.276Z,97.70
2023-04-04T08:26:03.352Z,97.90
2023-04-04T08:28:40.705Z,98.60
2023-04-04T08:31:14.543Z,98.90
2023-04-04T08:33:47.974Z,98.70
2023-04-04T08:36:23.224Z,98.50
2023-04-04T08:38:59.167Z,98.00
2023-04-04T08:41:42.929Z,97.00
2023-04-04T08:44:21.161Z,96.50
2023-04-04T08:46:58.099Z,95.80
2023-04-04T08:49:32.685Z,96.00
2023-04-04T08:52:06.872Z,95.10
2023-04-04T08:54:39.332Z,95.70
2023-04-04T08:57:15.518Z,95.50
2023-04-04T08:59:52.761Z,95.70
2023-04-04T09:02:29.055Z,95.40
2023-04-04T09:05:06.926Z,94.70
2023-04-04T09:07:40.701Z,94.90
2023-04-04T09:13:58.636Z,95.30
2023-04-04T09:16:55.638Z,94.70
2023-04-04T09:38:07.901Z,94.40
2023-04-04T09:47:04.570Z,93.90
2023-04-04T09:49:42.903Z,92.80
2023-04-04T09:52:23.096Z,93.00
2023-04-04T09:55:05.186Z,93.20
2023-04-04T09:57:42.414Z,92.30
2023-04-04T10:00:20.772Z,92.20
2023-04-04T10:03:07.771Z,93.10
2023-04-04T10:05:55.063Z,93.50
2023-04-04T10:08:37.840Z,94.70
2023-04-04T10:11:14.217Z,95.80
2023-04-04T10:14:00.688Z,95.90
2023-04-04T10:16:40.670Z,95.90
2023-04-04T10:19:22.487Z,95.60
2023-04-04T10:22:01.042Z,95.40
2023-04-04T10:24:36.506Z,94.90
2023-04-04T10:27:13.233Z,94.70
2023-04-04T10:29:47.847Z,94.30
2023-04-04T10:32:31.618Z,94.30
2023-04-04T10:35:11.891Z,94.60
2023-04-04T10:37:58.636Z,94.60
2023-04-04T10:40:39.217Z,95.50
2023-04-04T10:43:17.272Z,96.30
2023-04-04T10:46:06.031Z,96.40
2023-04-04T10:48:44.413Z,96.00
2023-04-04T10:51:23.418Z,94.00
2023-04-04T10:54:10.362Z,93.30
2023-04-04T10:56:47.028Z,93.80
2023-04-04T10:59:36.422Z,94.00
2023-04-04T11:02:17.264Z,93.50
2023-04-04T11:04:56.485Z,93.20
2023-04-04T11:07:57.162Z,93.70
2023-04-04T11:10:41.021Z,94.90
2023-04-04T11:13:30.518Z,94.40
2023-04-04T11:16:10.945Z,94.80
2023-04-04T11:19:01.696Z,96.90
2023-04-04T11:21:41.189Z,98.50
2023-04-04T11:24:21.835Z,98.50
2023-04-04T11:27:01.171Z,98.70
2023-04-04T11:30:01.290Z,99.00
2023-04-04T11:33:04.026Z,98.90
2023-04-04T11:35:53.604Z,98.30
2023-04-04T11:38:34.266Z,97.90
2023-04-04T11:41:16.893Z,97.00
2023-04-04T11:43:59.547Z,97.80
2023-04-04T11:46:43.079Z,98.80
2023-04-04T11:49:34.574Z,98.50
2023-04-04T11:52:13.918Z,99.90
2023-04-04T11:54:57.145Z,99.90
2023-04-04T11:57:42.020Z,99.90
2023-04-04T12:00:38.969Z,99.90
2023-04-04T12:03:20.182Z,99.90
2023-04-04T12:05:59.819Z,99.90
2023-04-04T12:08:40.525Z,99.90
2023-04-04T12:11:23.807Z,99.90
2023-04-04T12:14:01.868Z,99.90
2023-04-04T12:16:44.891Z,99.90
2023-04-04T12:19:22.227Z,99.90
2023-04-04T12:22:07.830Z,99.90
2023-04-04T12:24:44.835Z,99.90
2023-04-04T12:27:27.388Z,99.90
2023-04-04T12:30:12.168Z,99.90
2023-04-04T12:32:58.206Z,99.90
2023-04-04T12:35:41.877Z,99.90
2023-04-04T12:38:21.393Z,99.90
2023-04-04T12:41:00.121Z,99.90
2023-04-04T12:43:44.181Z,99.90
2023-04-04T12:46:34.570Z,99.10
2023-04-04T12:49:18.434Z,97.80
2023-04-04T12:52:05.786Z,96.50
2023-04-04T12:54:48.650Z,96.30
2023-04-04T12:57:33.931Z,96.10
2023-04-04T13:00:22.924Z,95.80
2023-04-04T13:03:13.494Z,95.50
2023-04-04T13:05:57.842Z,97.60
2023-04-04T13:08:36.710Z,97.80
2023-04-04T13:11:26.099Z,97.90
2023-04-04T13:14:17.405Z,98.80
2023-04-04T13:17:07.248Z,99.30
2023-04-04T13:19:49.835Z,99.60
2023-04-04T13:22:43.137Z,99.70
2023-04-04T13:25:21.670Z,99.70
2023-04-04T13:27:59.651Z,99.30
2023-04-04T13:30:39.167Z,98.30
2023-04-04T13:33:23.135Z,97.70
2023-04-04T13:36:07.068Z,97.90
2023-04-04T13:38:50.997Z,98.20
2023-04-04T13:41:38.786Z,97.60
2023-04-04T13:44:20.823Z,96.90
2023-04-04T13:46:57.806Z,95.40
2023-04-04T13:49:37.946Z,95.20
2023-04-04T13:52:19.368Z,95.00
2023-04-04T13:55:00.424Z,95.20
2023-04-04T13:57:39.128Z,95.10
2023-04-04T14:00:21.240Z,95.70
2023-04-04T14:03:05.866Z,95.60
2023-04-04T14:05:51.601Z,94.00
2023-04-04T14:08:33.114Z,94.30
2023-04-04T14:11:16.147Z,93.70
2023-04-04T14:13:53.823Z,92.30
2023-04-04T14:16:40.545Z,91.20
2023-04-04T14:19:17.724Z,92.20
2023-04-04T14:21:56.510Z,92.40
2023-04-04T14:24:48.770Z,92.50
2023-04-04T14:27:37.715Z,93.70
2023-04-04T14:30:15.535Z,94.40
2023-04-04T14:32:55.626Z,94.20
2023-04-04T14:35:37.324Z,93.30
2023-04-04T14:38:20.654Z,94.50
2023-04-04T14:41:06.540Z,95.90
2023-04-04T14:43:51.958Z,95.80
2023-04-04T14:46:31.431Z,95.80
2023-04-04T14:49:15.937Z,96.60
2023-04-04T14:51:57.898Z,96.90
2023-04-04T14:54:35.762Z,96.00
2023-04-04T14:57:19.451Z,95.50
2023-04-04T14:59:57.255Z,96.30
2023-04-04T15:02:35.258Z,96.00
2023-04-04T15:05:14.678Z,95.70
2023-04-04T15:07:52.625Z,95.60
2023-04-04T15:10:36.457Z,95.60
2023-04-04T15:16:12.536Z,96.30
2023-04-04T15:18:56.392Z,96.60
2023-04-04T15:21:42.990Z,96.10
2023-04-04T15:24:34.633Z,95.50
2023-04-04T15:27:14.412Z,95.60
2023-04-04T15:30:00.153Z,95.60
2023-04-04T15:32:37.353Z,96.00
2023-04-04T15:35:21.530Z,96.30
2023-04-04T15:38:04.732Z,95.90
2023-04-04T15:40:43.058Z,95.80
2023-04-04T15:43:28.666Z,94.30
2023-04-04T15:46:09.066Z,94.90
2023-04-04T15:48:59.714Z,95.60
2023-04-04T15:51:40.116Z,96.70
2023-04-04T15:54:22.210Z,97.80
2023-04-04T15:56:58.201Z,98.00
2023-04-04T15:59:37.516Z,97.60
2023-04-04T16:02:17.777Z,97.40
2023-04-04T16:04:56.700Z,97.60
2023-04-04T16:07:33.727Z,97.80
2023-04-04T16:13:05.214Z,97.90
2023-04-04T16:15:47.917Z,98.10
2023-04-04T16:18:27.917Z,98.40
2023-04-04T16:21:08.424Z,98.50
2023-04-04T16:23:48.153Z,98.50
2023-04-04T16:26:32.404Z,98.70
2023-04-04T16:29:09.527Z,98.50
2023-04-04T16:31:48.469Z,98.60
2023-04-04T16:34:32.600Z,98.40
2023-04-04T16:37:09.797Z,98.40
2023-04-04T16:39:50.185Z,98.30
2023-04-04T16:42:25.756Z,98.40
2023-04-04T16:48:05.681Z,98.50
2023-04-04T16:50:48.313Z,99.50
2023-04-04T16:53:25.984Z,99.90
2023-04-04T16:56:03.920Z,99.90
2023-04-04T16:58:48.035Z,99.90
2023-04-04T17:01:36.101Z,99.90
2023-04-04T17:04:17.303Z,99.90
2023-04-04T17:06:59.514Z,99.90
2023-04-04T17:09:47.113Z,99.90
2023-04-04T17:12:28.965Z,99.90
2023-04-04T17:15:06.591Z,99.90
2023-04-04T17:17:49.788Z,99.90
2023-04-04T17:20:30.295Z,99.90
2023-04-04T17:23:12.384Z,99.90
2023-04-04T17:25:48.371Z,99.90
2023-04-04T17:28:29.955Z,99.90
2023-04-04T17:31:09.394Z,99.90
2023-04-04T17:33:44.847Z,99.90
2023-04-04T17:36:22.867Z,99.90
2023-04-04T17:39:02.736Z,99.90
2023-04-04T17:41:40.381Z,99.90
2023-04-04T17:44:23.040Z,99.90
2023-04-04T17:47:09.455Z,99.90
2023-04-04T17:49:49.048Z,99.90
2023-04-04T17:52:34.185Z,99.90
2023-04-04T17:55:12.409Z,99.90
2023-04-04T17:57:49.904Z,99.90
2023-04-04T18:00:31.058Z,99.90
2023-04-04T18:03:07.181Z,99.90
2023-04-04T18:05:50.485Z,99.90
2023-04-04T18:08:27.952Z,99.90
2023-04-04T18:11:09.660Z,99.90
2023-04-04T18:13:46.321Z,99.90
2023-04-04T18:16:40.307Z,99.90
2023-04-04T18:19:24.341Z,99.90
2023-04-04T18:22:05.350Z,99.90
2023-04-04T18:24:47.578Z,99.90
2023-04-04T18:27:32.424Z,99.90
2023-04-04T18:30:10.295Z,99.90
2023-04-04T18:32:52.281Z,99.90
2023-04-04T18:35:40.354Z,99.90
2023-04-04T18:38:19.029Z,99.90
2023-04-04T18:40:56.765Z,99.90
2023-04-04T18:43:49.904Z,99.90
2023-04-04T18:46:27.737Z,99.90
2023-04-04T18:49:14.934Z,99.90
2023-04-04T18:51:52.569Z,99.90
2023-04-04T18:54:32.609Z,99.90
2023-04-04T18:57:09.215Z,99.90
2023-04-04T18:59:48.869Z,99.90
2023-04-04T19:02:33.631Z,99.90
2023-04-04T19:05:14.309Z,99.90
2023-04-04T19:07:53.201Z,99.90
2023-04-04T19:10:30.953Z,99.90
2023-04-04T19:13:06.162Z,99.90
2023-04-04T19:15:51.533Z,99.90
2023-04-04T19:18:31.666Z,99.90
2023-04-04T19:21:19.892Z,99.90
2023-04-04T19:24:06.759Z,99.90
2023-04-04T19:26:49.184Z,99.90
2023-04-04T19:29:33.756Z,99.90
2023-04-04T19:32:21.173Z,99.90
2023-04-04T19:34:56.412Z,99.90
2023-04-04T19:37:48.053Z,99.90
2023-04-04T19:40:50.970Z,99.90
2023-04-04T19:43:46.617Z,99.90
2023-04-04T19:46:24.349Z,99.90
2023-04-04T19:49:09.574Z,99.90
2023-04-04T19:52:02.242Z,99.90
2023-04-04T19:54:46.480Z,99.90
2023-04-04T19:57:36.223Z,99.90
2023-04-04T20:00:24.491Z,99.90
2023-04-04T20:03:06.618Z,99.90
2023-04-04T20:05:59.472Z,99.90
2023-04-04T20:12:03.994Z,99.90
2023-04-04T20:14:42.943Z,99.90
2023-04-04T20:17:19.107Z,99.90
2023-04-04T20:20:00.863Z,99.90
2023-04-04T20:22:44.510Z,99.90
2023-04-04T20:25:46.000Z,99.90
2023-04-04T20:28:34.543Z,99.90
2023-04-04T20:31:12.812Z,99.90
2023-04-04T20:33:51.040Z,99.90
2023-04-04T20:36:38.140Z,99.90
2023-04-04T20:39:13.590Z,99.90
2023-04-04T20:41:52.613Z,99.90
2023-04-04T20:44:31.954Z,99.90
2023-04-04T20:47:09.482Z,99.90
2023-04-04T20:49:46.770Z,99.90
2023-04-04T20:52:33.784Z,99.90
2023-04-04T20:55:31.596Z,99.90
2023-04-04T20:58:32.770Z,99.90
2023-04-04T21:01:18.763Z,99.90
2023-04-04T21:04:01.218Z,99.90
2023-04-04T21:06:39.973Z,99.90
2023-04-04T21:09:18.223Z,99.90
2023-04-04T21:12:02.329Z,99.90
2023-04-04T21:14:45.748Z,99.90
2023-04-04T21:17:31.814Z,99.90
2023-04-04T21:20:23.122Z,99.90
2023-04-04T21:23:04.116Z,99.90
2023-04-04T21:25:49.377Z,99.90
2023-04-04T21:28:32.552Z,99.90
2023-04-04T21:31:16.986Z,99.90
2023-04-04T21:34:00.159Z,99.90
2023-04-04T21:36:39.389Z,99.90
2023-04-04T21:39:21.903Z,99.90
2023-04-04T21:42:03.687Z,99.90
2023-04-04T21:44:50.939Z,99.90
2023-04-04T21:47:26.836Z,99.90
2023-04-04T21:50:15.635Z,99.90
2023-04-04T21:52:52.889Z,99.90
2023-04-04T21:55:41.693Z,99.90
2023-04-04T21:58:27.127Z,99.90
2023-04-04T22:01:03.543Z,99.90
2023-04-04T22:03:46.144Z,99.90
2023-04-04T22:06:29.514Z,99.90
2023-04-04T22:09:06.668Z,99.90
2023-04-04T22:11:46.811Z,99.90
2023-04-04T22:14:35.717Z,99.90
2023-04-04T22:17:24.003Z,99.90
2023-04-04T22:20:11.500Z,99.90
2023-04-04T22:22:54.096Z,99.90
2023-04-04T22:25:39.396Z,99.90
2023-04-04T22:28:19.297Z,99.90
2023-04-04T22:30:58.643Z,99.90
2023-04-04T22:33:40.791Z,99.90
2023-04-04T22:36:20.353Z,99.90
2023-04-04T22:39:03.918Z,99.90
2023-04-04T22:41:46.064Z,99.90
2023-04-04T22:44:22.411Z,99.90
2023-04-04T22:46:58.434Z,99.90
2023-04-04T22:49:34.108Z,99.90
2023-04-04T22:52:18.027Z,99.90
2023-04-04T22:55:01.133Z,99.90
2023-04-04T22:57:42.399Z,99.90
2023-04-04T23:00:18.212Z,99.90
2023-04-04T23:02:59.136Z,99.90
2023-04-04T23:05:36.492Z,99.90
2023-04-04T23:08:30.535Z,99.90
2023-04-04T23:11:34.206Z,99.90
2023-04-04T23:14:09.206Z,99.90
2023-04-04T23:16:46.625Z,99.90
2023-04-04T23:19:24.000Z,99.90
2023-04-04T23:22:12.075Z,99.90
2023-04-04T23:24:51.041Z,99.90
2023-04-04T23:27:33.213Z,99.90
2023-04-04T23:30:08.901Z,99.90
2023-04-04T23:32:42.047Z,99.90
2023-04-04T23:35:31.304Z,99.90
2023-04-04T23:38:04.861Z,99.90
2023-04-04T23:40:42.410Z,99.90
2023-04-04T23:43:25.147Z,99.90
2023-04-04T23:46:04.942Z,99.90
2023-04-04T23:48:45.413Z,99.90
2023-04-04T23:51:24.945Z,99.90
2023-04-04T23:54:01.851Z,99.90
2023-04-04T23:56:39.660Z,99.90
2023-04-04T23:59:28.797Z,99.90
